Time;durP1;ratioP1;P1;durP2;ratioP2;P2;SDS_P1;SDS_P2;PMS_P1;PMS_P2;Temp;Humidity;BMP_temperature;BMP_pressure;BME280_temperature;BME280_humidity;BME280_pressure;Samples;Min_cycle;Max_cycle;Signal;HPM_P1;HPM_P2
2023/07/28 00:02:24;;;;;;;31.15;15.93;;;;;;;;;;5094298;28;20130;-75
2023/07/28 00:04:50;;;;;;;35.38;16.58;;;;;;;;;;5076714;28;20507;-75
2023/07/28 00:07:18;;;;;;;32.90;16.58;;;;;;;;;;5094207;28;20284;-75
2023/07/28 00:09:44;;;;;;;32.83;16.83;;;;;;;;;;5108387;28;20128;-75
2023/07/28 00:12:10;;;;;;;33.90;16.40;;;;;;;;;;5112593;28;20528;-75
2023/07/28 00:14:36;;;;;;;33.15;17.27;;;;;;;;;;5095128;28;20422;-76
2023/07/28 00:17:03;;;;;;;40.10;17.55;;;;;;;;;;5076973;28;20052;-76
2023/07/28 00:19:29;;;;;;;36.63;18.58;;;;;;;;;;5095104;28;20040;-76
2023/07/28 00:21:56;;;;;;;40.60;18.58;;;;;;;;;;5095391;28;20138;-74
2023/07/28 00:24:22;;;;;;;35.30;16.98;;;;;;;;;;5096536;28;20079;-75
2023/07/28 00:26:48;;;;;;;29.80;16.52;;;;;;;;;;5115548;28;20050;-76
2023/07/28 00:29:14;;;;;;;32.10;16.70;;;;;;;;;;5113169;28;20430;-76
2023/07/28 00:31:40;;;;;;;32.25;15.85;;;;;;;;;;5092975;28;20580;-75
2023/07/28 00:34:06;;;;;;;30.48;15.82;;;;;;;;;;5092899;28;20272;-75
2023/07/28 00:36:32;;;;;;;32.22;15.20;;;;;;;;;;5075011;28;20479;-75
2023/07/28 00:38:59;;;;;;;33.13;16.77;;;;;;;;;;5092489;28;20519;-75
2023/07/28 00:41:25;;;;;;;39.17;16.92;;;;;;;;;;5093035;28;20083;-75
2023/07/28 00:43:51;;;;;;;32.63;15.95;;;;;;;;;;5092063;28;20044;-75
2023/07/28 00:46:17;;;;;;;32.28;16.10;;;;;;;;;;5094032;28;20527;-75
2023/07/28 00:48:44;;;;;;;31.73;16.45;;;;;;;;;;5070677;28;20048;-75
2023/07/28 00:51:10;;;;;;;30.58;16.45;;;;;;;;;;5094627;28;20040;-75
2023/07/28 00:53:37;;;;;;;25.70;14.68;;;;;;;;;;5093867;28;20059;-75
2023/07/28 00:56:03;;;;;;;25.17;14.30;;;;;;;;;;5094265;28;20044;-75
2023/07/28 00:58:30;;;;;;;33.65;16.27;;;;;;;;;;5074923;28;20039;-76
2023/07/28 01:00:56;;;;;;;34.70;15.82;;;;;;;;;;5093495;28;20066;-76
2023/07/28 01:03:22;;;;;;;32.78;15.88;;;;;;;;;;5094415;28;20477;-76
2023/07/28 01:05:55;;;;;;;29.20;16.27;;;;;;;;;;5094004;28;20036;-76
2023/07/28 01:08:27;;;;;;;31.63;16.00;;;;;;;;;;5092958;28;20051;-76
2023/07/28 01:10:54;;;;;;;29.35;15.93;;;;;;;;;;5049990;28;20039;-76
2023/07/28 01:13:20;;;;;;;27.65;16.52;;;;;;;;;;5075492;28;20047;-75
2023/07/28 01:15:46;;;;;;;35.72;17.30;;;;;;;;;;5093828;28;20177;-76
2023/07/28 01:18:13;;;;;;;29.98;16.92;;;;;;;;;;5093651;28;20119;-75
2023/07/28 01:20:40;;;;;;;39.05;17.50;;;;;;;;;;5093681;28;20040;-75
2023/07/28 01:23:09;;;;;;;36.33;18.25;;;;;;;;;;5093958;28;20032;-75
2023/07/28 01:25:35;;;;;;;40.28;19.30;;;;;;;;;;5093177;28;20044;-75
2023/07/28 01:28:01;;;;;;;38.15;18.50;;;;;;;;;;5093411;28;20052;-75
2023/07/28 01:30:28;;;;;;;42.50;19.67;;;;;;;;;;5075068;28;20055;-75
2023/07/28 01:32:56;;;;;;;40.97;19.67;;;;;;;;;;5093497;28;20168;-75
2023/07/28 01:35:22;;;;;;;46.28;19.98;;;;;;;;;;5093387;28;20051;-75
2023/07/28 01:37:50;;;;;;;42.47;19.40;;;;;;;;;;5093915;28;20044;-75
2023/07/28 01:40:19;;;;;;;36.88;18.45;;;;;;;;;;5093252;28;20514;-75
2023/07/28 01:42:46;;;;;;;41.47;18.95;;;;;;;;;;5074928;28;20036;-75
2023/07/28 01:45:12;;;;;;;34.80;18.60;;;;;;;;;;5090999;28;20052;-75
2023/07/28 01:47:38;;;;;;;34.00;17.25;;;;;;;;;;5093294;28;20056;-75
2023/07/28 01:50:05;;;;;;;29.55;15.85;;;;;;;;;;5074769;28;20032;-75
2023/07/28 01:52:31;;;;;;;31.02;16.48;;;;;;;;;;5093560;28;20195;-75
2023/07/28 01:54:57;;;;;;;33.13;16.55;;;;;;;;;;5092941;28;20043;-76
2023/07/28 01:57:27;;;;;;;31.42;16.45;;;;;;;;;;5064075;28;20044;-74
2023/07/28 01:59:53;;;;;;;32.63;15.50;;;;;;;;;;5079883;28;20040;-75
2023/07/28 02:02:19;;;;;;;28.80;16.33;;;;;;;;;;5093359;28;20480;-75
2023/07/28 02:04:46;;;;;;;24.20;13.85;;;;;;;;;;5089934;28;20040;-76
2023/07/28 02:07:12;;;;;;;32.85;14.85;;;;;;;;;;5091375;28;20086;-75
2023/07/28 02:09:38;;;;;;;25.48;13.30;;;;;;;;;;5074338;28;20044;-75
2023/07/28 02:12:04;;;;;;;24.52;13.68;;;;;;;;;;5092840;28;20546;-75
2023/07/28 02:14:30;;;;;;;31.83;15.85;;;;;;;;;;5092426;28;20044;-75
2023/07/28 02:16:56;;;;;;;31.95;14.48;;;;;;;;;;5093239;28;20040;-75
2023/07/28 02:19:22;;;;;;;23.85;14.95;;;;;;;;;;5058068;28;20112;-76
2023/07/28 02:21:49;;;;;;;27.45;14.68;;;;;;;;;;5074327;28;20047;-76
2023/07/28 02:24:15;;;;;;;25.05;14.20;;;;;;;;;;5071486;28;20044;-75
2023/07/28 02:26:41;;;;;;;26.63;14.00;;;;;;;;;;5090133;28;20047;-75
2023/07/28 02:29:07;;;;;;;26.35;14.68;;;;;;;;;;5092893;28;20400;-76
2023/07/28 02:31:33;;;;;;;30.75;17.52;;;;;;;;;;5092384;28;20043;-76
2023/07/28 02:33:59;;;;;;;38.95;17.85;;;;;;;;;;5092256;28;20036;-75
2023/07/28 02:36:25;;;;;;;35.10;17.55;;;;;;;;;;5092120;28;20043;-76
2023/07/28 02:38:51;;;;;;;35.60;17.40;;;;;;;;;;5092305;28;20032;-76
2023/07/28 02:41:18;;;;;;;38.20;18.27;;;;;;;;;;5092724;28;20360;-76
2023/07/28 02:43:44;;;;;;;33.85;18.98;;;;;;;;;;5092196;28;20082;-76
2023/07/28 02:46:10;;;;;;;39.00;18.58;;;;;;;;;;5091867;28;20087;-76
2023/07/28 02:48:36;;;;;;;39.75;18.90;;;;;;;;;;5092538;28;20389;-76
2023/07/28 02:51:02;;;;;;;42.22;19.42;;;;;;;;;;5092128;28;20079;-76
2023/07/28 02:53:28;;;;;;;39.88;19.88;;;;;;;;;;5091768;28;20503;-76
2023/07/28 02:55:57;;;;;;;37.05;18.02;;;;;;;;;;5091533;28;20050;-76
2023/07/28 02:58:25;;;;;;;39.38;18.13;;;;;;;;;;5091310;28;20044;-75
2023/07/28 03:00:52;;;;;;;38.33;18.42;;;;;;;;;;5070938;28;20048;-75
2023/07/28 03:03:18;;;;;;;36.80;19.08;;;;;;;;;;5091778;28;20079;-76
2023/07/28 03:05:44;;;;;;;37.63;18.60;;;;;;;;;;5091810;28;20086;-76
2023/07/28 03:08:10;;;;;;;40.75;18.33;;;;;;;;;;5099874;28;20385;-76
2023/07/28 03:10:36;;;;;;;49.05;18.08;;;;;;;;;;5091540;28;20140;-76
2023/07/28 03:13:02;;;;;;;39.85;18.25;;;;;;;;;;5091939;28;20036;-76
2023/07/28 03:15:28;;;;;;;37.17;16.90;;;;;;;;;;5071241;28;20514;-76
2023/07/28 03:17:54;;;;;;;34.80;16.90;;;;;;;;;;5092838;28;20162;-76
2023/07/28 03:20:21;;;;;;;40.08;16.40;;;;;;;;;;5096016;28;20139;-76
2023/07/28 03:22:47;;;;;;;30.05;15.02;;;;;;;;;;5096099;28;20048;-76
2023/07/28 03:25:13;;;;;;;32.35;15.43;;;;;;;;;;5095327;28;20044;-76
2023/07/28 03:27:39;;;;;;;36.33;15.43;;;;;;;;;;5077904;28;20051;-76
2023/07/28 03:30:08;;;;;;;31.60;14.55;;;;;;;;;;5095585;28;20040;-76
2023/07/28 03:32:34;;;;;;;34.97;14.88;;;;;;;;;;5096095;28;20377;-76
2023/07/28 03:35:00;;;;;;;31.17;14.63;;;;;;;;;;5076942;28;20086;-75
2023/07/28 03:37:26;;;;;;;35.67;14.07;;;;;;;;;;5095457;28;20089;-75
2023/07/28 03:39:52;;;;;;;38.83;14.35;;;;;;;;;;5095426;28;20071;-76
2023/07/28 03:42:19;;;;;;;24.60;12.80;;;;;;;;;;5096026;28;20404;-76
2023/07/28 03:44:45;;;;;;;28.98;13.30;;;;;;;;;;5076704;28;20090;-76
2023/07/28 03:47:11;;;;;;;31.42;12.63;;;;;;;;;;5077685;28;20553;-76
2023/07/28 03:49:37;;;;;;;28.55;12.60;;;;;;;;;;5095391;28;20130;-76
2023/07/28 03:52:03;;;;;;;26.42;12.75;;;;;;;;;;5077379;28;20048;-76
2023/07/28 03:54:29;;;;;;;25.98;11.85;;;;;;;;;;5077087;28;20543;-75
2023/07/28 03:56:55;;;;;;;27.85;12.48;;;;;;;;;;5094066;28;20067;-76
2023/07/28 03:59:22;;;;;;;29.98;12.10;;;;;;;;;;5075723;28;20051;-75
2023/07/28 04:01:48;;;;;;;31.02;11.35;;;;;;;;;;5076441;28;20480;-75
2023/07/28 04:04:14;;;;;;;27.88;11.48;;;;;;;;;;5069024;28;20067;-74
2023/07/28 04:06:44;;;;;;;25.95;11.38;;;;;;;;;;5090069;28;20110;-75
2023/07/28 04:09:11;;;;;;;26.98;10.10;;;;;;;;;;5093423;28;20048;-75
2023/07/28 04:11:37;;;;;;;31.20;10.80;;;;;;;;;;5075443;28;20089;-75
2023/07/28 04:14:04;;;;;;;29.55;11.70;;;;;;;;;;5094649;28;20123;-75
2023/07/28 04:16:30;;;;;;;28.75;10.63;;;;;;;;;;5095307;28;20040;-75
2023/07/28 04:18:57;;;;;;;29.48;10.63;;;;;;;;;;5094631;28;20048;-76
2023/07/28 04:21:23;;;;;;;25.10;10.82;;;;;;;;;;5094860;28;20048;-76
2023/07/28 04:23:49;;;;;;;25.92;10.77;;;;;;;;;;5094688;28;20102;-76
2023/07/28 04:26:16;;;;;;;29.73;11.02;;;;;;;;;;5094626;28;20040;-76
2023/07/28 04:28:42;;;;;;;23.95;10.23;;;;;;;;;;5093912;28;20378;-76
2023/07/28 04:31:09;;;;;;;26.45;10.50;;;;;;;;;;5093100;28;20070;-76
2023/07/28 04:33:35;;;;;;;29.13;10.60;;;;;;;;;;5094848;28;20040;-76
2023/07/28 04:36:04;;;;;;;20.10;9.90;;;;;;;;;;5094462;28;20048;-75
2023/07/28 04:38:30;;;;;;;28.98;9.85;;;;;;;;;;5094918;28;20058;-76
2023/07/28 04:40:56;;;;;;;22.77;10.13;;;;;;;;;;5093970;28;20062;-75
2023/07/28 04:43:22;;;;;;;24.15;10.02;;;;;;;;;;5094817;28;20044;-76
2023/07/28 04:45:48;;;;;;;25.00;10.75;;;;;;;;;;5075889;28;20048;-76
2023/07/28 04:48:14;;;;;;;19.13;10.30;;;;;;;;;;5074481;28;20067;-75
2023/07/28 04:50:40;;;;;;;19.35;10.18;;;;;;;;;;5075499;28;20045;-76
2023/07/28 04:53:06;;;;;;;24.10;10.60;;;;;;;;;;5076064;28;20074;-76
2023/07/28 04:55:33;;;;;;;26.65;10.60;;;;;;;;;;5075394;28;20036;-75
2023/07/28 04:57:59;;;;;;;23.90;10.85;;;;;;;;;;5093012;28;20097;-75
2023/07/28 05:00:25;;;;;;;27.95;10.38;;;;;;;;;;5075651;28;20032;-75
2023/07/28 05:02:51;;;;;;;23.02;9.70;;;;;;;;;;5093957;28;20044;-75
2023/07/28 05:05:17;;;;;;;21.52;9.38;;;;;;;;;;5071836;28;20040;-75
2023/07/28 05:07:43;;;;;;;22.20;9.52;;;;;;;;;;5080982;28;20036;-75
2023/07/28 05:10:10;;;;;;;21.40;9.40;;;;;;;;;;5075262;28;20040;-77
2023/07/28 05:12:36;;;;;;;16.42;9.63;;;;;;;;;;5093902;28;20040;-75
2023/07/28 05:15:02;;;;;;;18.08;9.27;;;;;;;;;;5092041;28;20066;-75
2023/07/28 05:17:28;;;;;;;15.82;9.15;;;;;;;;;;5094307;28;20127;-75
2023/07/28 05:19:54;;;;;;;21.98;8.65;;;;;;;;;;5096305;28;20036;-74
2023/07/28 05:22:20;;;;;;;15.55;8.88;;;;;;;;;;5099574;28;20047;-74
2023/07/28 05:24:46;;;;;;;22.92;8.48;;;;;;;;;;5095613;28;20040;-75
2023/07/28 05:27:12;;;;;;;17.92;9.10;;;;;;;;;;5093262;28;20044;-77
2023/07/28 05:29:39;;;;;;;17.15;8.50;;;;;;;;;;5075067;28;20118;-76
2023/07/28 05:32:06;;;;;;;18.58;9.13;;;;;;;;;;5111236;28;20047;-76
2023/07/28 05:34:32;;;;;;;15.90;8.82;;;;;;;;;;5094506;28;20047;-76
2023/07/28 05:36:58;;;;;;;16.52;8.02;;;;;;;;;;5093734;28;20044;-76
2023/07/28 05:39:24;;;;;;;15.57;8.35;;;;;;;;;;5093309;28;20404;-76
2023/07/28 05:41:50;;;;;;;15.98;8.40;;;;;;;;;;5092433;28;20066;-77
2023/07/28 05:44:17;;;;;;;21.42;8.48;;;;;;;;;;5092572;28;20588;-76
2023/07/28 05:46:44;;;;;;;19.75;8.77;;;;;;;;;;5092691;28;20421;-77
2023/07/28 05:49:10;;;;;;;16.35;8.63;;;;;;;;;;5092387;28;20063;-77
2023/07/28 05:51:36;;;;;;;15.52;8.07;;;;;;;;;;5093155;28;20431;-77
2023/07/28 05:54:02;;;;;;;12.75;7.93;;;;;;;;;;5093048;28;20110;-76
2023/07/28 05:56:28;;;;;;;16.15;9.02;;;;;;;;;;5093182;28;20039;-75
2023/07/28 05:58:55;;;;;;;14.63;8.30;;;;;;;;;;5092762;28;20059;-75
2023/07/28 06:01:21;;;;;;;13.98;8.00;;;;;;;;;;5073363;28;20066;-75
2023/07/28 06:03:47;;;;;;;16.95;8.82;;;;;;;;;;5070431;28;20094;-75
2023/07/28 06:06:13;;;;;;;14.45;8.07;;;;;;;;;;5081319;28;20127;-75
2023/07/28 06:08:39;;;;;;;16.08;8.13;;;;;;;;;;5105227;28;20047;-75
2023/07/28 06:11:06;;;;;;;16.42;8.98;;;;;;;;;;5095084;28;20399;-75
2023/07/28 06:13:32;;;;;;;16.02;9.07;;;;;;;;;;5094262;28;20411;-75
2023/07/28 06:15:58;;;;;;;15.30;8.38;;;;;;;;;;5092347;28;20190;-75
2023/07/28 06:18:25;;;;;;;14.73;9.25;;;;;;;;;;5075240;28;20484;-74
2023/07/28 06:20:51;;;;;;;13.00;8.48;;;;;;;;;;5092419;28;20447;-75
2023/07/28 06:23:17;;;;;;;14.77;8.80;;;;;;;;;;5092694;28;20044;-74
2023/07/28 06:25:45;;;;;;;14.70;8.90;;;;;;;;;;5092119;28;20107;-75
2023/07/28 06:28:11;;;;;;;13.63;8.38;;;;;;;;;;5094337;28;20104;-75
2023/07/28 06:30:38;;;;;;;12.95;8.80;;;;;;;;;;5087400;28;20047;-75
2023/07/28 06:33:06;;;;;;;13.35;8.82;;;;;;;;;;5092871;28;20044;-75
2023/07/28 06:35:32;;;;;;;15.05;8.57;;;;;;;;;;5092068;28;20515;-75
2023/07/28 06:37:58;;;;;;;12.70;8.57;;;;;;;;;;5074512;28;20055;-75
2023/07/28 06:40:24;;;;;;;11.88;8.18;;;;;;;;;;5091449;28;20036;-75
2023/07/28 06:42:51;;;;;;;11.38;8.57;;;;;;;;;;5105792;28;20048;-75
2023/07/28 06:45:17;;;;;;;11.32;7.10;;;;;;;;;;5111046;28;20052;-75
2023/07/28 06:47:43;;;;;;;9.15;7.78;;;;;;;;;;5092540;28;20408;-77
2023/07/28 06:50:11;;;;;;;10.00;7.80;;;;;;;;;;5092390;28;20048;-76
2023/07/28 06:52:37;;;;;;;10.82;7.57;;;;;;;;;;5091942;28;20048;-75
2023/07/28 06:55:03;;;;;;;9.75;7.63;;;;;;;;;;5092188;28;20040;-76
2023/07/28 06:57:30;;;;;;;11.73;7.68;;;;;;;;;;5091997;28;20117;-76
2023/07/28 06:59:56;;;;;;;10.70;7.53;;;;;;;;;;5074769;28;20435;-73
2023/07/28 07:02:23;;;;;;;7.55;6.43;;;;;;;;;;5092625;28;20044;-76
2023/07/28 07:04:49;;;;;;;9.23;6.32;;;;;;;;;;5092425;28;20120;-75
2023/07/28 07:07:15;;;;;;;8.75;6.10;;;;;;;;;;5092570;28;20097;-75
2023/07/28 07:09:42;;;;;;;7.45;6.50;;;;;;;;;;5092138;28;20123;-76
2023/07/28 07:12:09;;;;;;;8.02;6.63;;;;;;;;;;5091492;28;20100;-75
2023/07/28 07:14:35;;;;;;;6.88;6.18;;;;;;;;;;5084181;28;20036;-75
2023/07/28 07:17:01;;;;;;;6.35;5.70;;;;;;;;;;5111742;28;20104;-75
2023/07/28 07:19:32;;;;;;;7.68;5.57;;;;;;;;;;5093709;28;20059;-75
2023/07/28 07:21:58;;;;;;;7.78;5.57;;;;;;;;;;5075240;28;20066;-75
2023/07/28 07:24:24;;;;;;;8.63;5.57;;;;;;;;;;5091312;28;20089;-74
2023/07/28 07:26:50;;;;;;;7.13;5.13;;;;;;;;;;5074301;28;20087;-75
2023/07/28 07:29:17;;;;;;;9.30;5.70;;;;;;;;;;5091680;28;20135;-75
2023/07/28 07:31:43;;;;;;;7.68;5.85;;;;;;;;;;5086417;28;20037;-75
2023/07/28 07:34:09;;;;;;;8.70;5.60;;;;;;;;;;5074433;28;20055;-75
2023/07/28 07:36:35;;;;;;;6.97;5.93;;;;;;;;;;5092054;28;20067;-75
2023/07/28 07:39:02;;;;;;;6.63;5.63;;;;;;;;;;5108448;28;20040;-76
2023/07/28 07:41:29;;;;;;;9.57;6.78;;;;;;;;;;5091834;28;20048;-75
2023/07/28 07:43:55;;;;;;;9.82;7.43;;;;;;;;;;5112159;28;20051;-74
2023/07/28 07:46:22;;;;;;;8.77;6.70;;;;;;;;;;5112209;28;20608;-75
2023/07/28 07:48:48;;;;;;;10.57;5.90;;;;;;;;;;5093889;28;20036;-74
2023/07/28 07:51:14;;;;;;;7.53;5.50;;;;;;;;;;5090816;28;20040;-75
2023/07/28 07:53:40;;;;;;;7.20;5.68;;;;;;;;;;5085635;28;20047;-75
2023/07/28 07:56:10;;;;;;;6.32;5.35;;;;;;;;;;5111635;28;20100;-74
2023/07/28 07:58:36;;;;;;;6.82;5.78;;;;;;;;;;5093240;28;20052;-74
2023/07/28 08:01:02;;;;;;;7.65;5.95;;;;;;;;;;5091871;28;20040;-74
2023/07/28 08:03:29;;;;;;;9.93;6.28;;;;;;;;;;5071990;28;20048;-75
2023/07/28 08:05:55;;;;;;;9.07;5.93;;;;;;;;;;5040403;28;20040;-75
2023/07/28 08:08:21;;;;;;;7.70;5.97;;;;;;;;;;5067440;28;20470;-73
2023/07/28 08:10:48;;;;;;;8.43;5.55;;;;;;;;;;5095391;28;20036;-74
2023/07/28 08:13:15;;;;;;;9.18;5.70;;;;;;;;;;5076824;28;20044;-74
2023/07/28 08:15:43;;;;;;;6.32;5.57;;;;;;;;;;5095161;28;20058;-74
2023/07/28 08:18:09;;;;;;;7.55;5.72;;;;;;;;;;5078094;28;20468;-75
2023/07/28 08:20:35;;;;;;;8.25;5.68;;;;;;;;;;5094935;28;20135;-73
2023/07/28 08:23:01;;;;;;;6.93;5.18;;;;;;;;;;5095713;28;20147;-73
2023/07/28 08:25:27;;;;;;;7.95;5.53;;;;;;;;;;5093363;28;20044;-74
2023/07/28 08:27:54;;;;;;;6.72;5.80;;;;;;;;;;5095303;28;20052;-75
2023/07/28 08:30:20;;;;;;;7.53;5.50;;;;;;;;;;5093247;28;20505;-73
2023/07/28 08:32:46;;;;;;;8.38;5.45;;;;;;;;;;5090563;28;20032;-79
2023/07/28 08:35:12;;;;;;;7.15;5.65;;;;;;;;;;5094623;28;20040;-76
2023/07/28 08:37:38;;;;;;;7.22;5.40;;;;;;;;;;5095158;28;20054;-74
2023/07/28 08:40:05;;;;;;;8.50;6.30;;;;;;;;;;5095033;28;20039;-74
2023/07/28 08:42:35;;;;;;;7.97;5.47;;;;;;;;;;5095270;28;20065;-74
2023/07/28 08:45:04;;;;;;;8.57;5.15;;;;;;;;;;5101097;28;20072;-74
2023/07/28 08:47:30;;;;;;;6.13;4.90;;;;;;;;;;5119729;28;20073;-74
2023/07/28 08:49:57;;;;;;;5.88;4.70;;;;;;;;;;5086355;28;20055;-74
2023/07/28 08:52:23;;;;;;;6.45;4.70;;;;;;;;;;5076399;28;20036;-74
2023/07/28 08:54:50;;;;;;;5.60;4.70;;;;;;;;;;5074842;28;20096;-75
2023/07/28 08:57:16;;;;;;;10.48;5.07;;;;;;;;;;5075861;28;20566;-75
2023/07/28 08:59:47;;;;;;;8.32;4.65;;;;;;;;;;5094207;28;20044;-76
2023/07/28 09:02:15;;;;;;;7.90;4.72;;;;;;;;;;5076199;28;20049;-75
2023/07/28 09:04:45;;;;;;;5.65;4.78;;;;;;;;;;5085209;28;20040;-75
2023/07/28 09:07:11;;;;;;;8.07;4.57;;;;;;;;;;5094202;28;20036;-75
2023/07/28 09:09:37;;;;;;;5.50;4.47;;;;;;;;;;5094672;28;20080;-83
2023/07/28 09:12:04;;;;;;;7.25;5.10;;;;;;;;;;5091820;28;20135;-77
2023/07/28 09:14:30;;;;;;;5.53;4.18;;;;;;;;;;5064148;28;20044;-73
2023/07/28 09:17:06;;;;;;;5.78;4.13;;;;;;;;;;5091301;28;20356;-75
2023/07/28 09:19:32;;;;;;;;;;;;;;;;;;5093747;28;20047;-75
2023/07/28 09:21:59;;;;;;;5.32;3.83;;;;;;;;;;5092289;28;20367;-74
2023/07/28 09:24:31;;;;;;;6.40;3.88;;;;;;;;;;5093678;28;20044;-74
2023/07/28 09:26:58;;;;;;;4.60;3.70;;;;;;;;;;5094126;28;20055;-74
2023/07/28 09:29:25;;;;;;;5.25;3.70;;;;;;;;;;5075273;28;20090;-75
2023/07/28 09:31:51;;;;;;;4.70;3.65;;;;;;;;;;5092010;28;20047;-75
2023/07/28 09:34:27;;;;;;;4.35;3.20;;;;;;;;;;5092263;28;20044;-74
2023/07/28 09:36:54;;;;;;;5.82;3.40;;;;;;;;;;5092933;28;20044;-75
2023/07/28 09:39:20;;;;;;;7.97;3.40;;;;;;;;;;5075429;28;20404;-75
2023/07/28 09:41:47;;;;;;;6.60;3.15;;;;;;;;;;5092535;28;20052;-75
2023/07/28 09:44:13;;;;;;;4.80;2.97;;;;;;;;;;5093643;28;20122;-77
2023/07/28 09:46:48;;;;;;;7.15;4.35;;;;;;;;;;5075454;28;20420;-76
2023/07/28 09:49:15;;;;;;;5.75;3.35;;;;;;;;;;5092685;28;20051;-77
2023/07/28 09:51:42;;;;;;;4.15;2.90;;;;;;;;;;5092059;28;20048;-76
2023/07/28 09:54:25;;;;;;;5.25;3.00;;;;;;;;;;5074453;28;20105;-76
2023/07/28 09:56:52;;;;;;;5.68;2.90;;;;;;;;;;5098506;28;20538;-76
2023/07/28 09:59:18;;;;;;;17.10;3.45;;;;;;;;;;5094634;28;20400;-76
2023/07/28 10:01:45;;;;;;;4.97;2.75;;;;;;;;;;5111987;28;20040;-76
2023/07/28 10:04:12;;;;;;;5.22;2.72;;;;;;;;;;5104330;28;20056;-75
2023/07/28 10:06:38;;;;;;;4.10;2.88;;;;;;;;;;5074757;28;20085;-75
2023/07/28 10:09:05;;;;;;;4.38;2.70;;;;;;;;;;5057573;28;20047;-75
2023/07/28 10:11:31;;;;;;;4.53;3.15;;;;;;;;;;5092526;28;20047;-75
2023/07/28 10:13:58;;;;;;;4.82;3.10;;;;;;;;;;5072601;28;20119;-76
2023/07/28 10:16:40;;;;;;;4.38;3.10;;;;;;;;;;5091615;28;20115;-76
2023/07/28 10:19:06;;;;;;;5.80;3.25;;;;;;;;;;5092863;28;20055;-75
2023/07/28 10:21:39;;;;;;;4.07;2.95;;;;;;;;;;5094314;28;20058;-83
2023/07/28 10:24:05;;;;;;;6.65;3.13;;;;;;;;;;5070713;28;20132;-84
2023/07/28 10:26:32;;;;;;;4.78;3.10;;;;;;;;;;5056794;28;20040;-84
2023/07/28 10:29:08;;;;;;;4.97;3.60;;;;;;;;;;5074676;28;20040;-83
2023/07/28 10:31:34;;;;;;;4.57;3.20;;;;;;;;;;5092970;28;20100;-82
2023/07/28 10:34:00;;;;;;;5.05;2.90;;;;;;;;;;5093081;28;20044;-83
2023/07/28 10:36:26;;;;;;;5.85;3.83;;;;;;;;;;5074905;28;20394;-83
2023/07/28 10:39:11;;;;;;;4.07;2.60;;;;;;;;;;5093451;28;20052;-84
2023/07/28 10:41:37;;;;;;;5.75;2.88;;;;;;;;;;5094637;28;20056;-83
2023/07/28 10:44:05;;;;;;;4.13;2.30;;;;;;;;;;5076230;28;20043;-84
2023/07/28 10:46:32;;;;;;;3.08;2.40;;;;;;;;;;5077325;28;20188;-82
2023/07/28 10:49:04;;;;;;;4.28;2.50;;;;;;;;;;5059444;28;20047;-83
2023/07/28 10:51:33;;;;;;;4.18;2.10;;;;;;;;;;5074922;28;20103;-83
2023/07/28 10:54:02;;;;;;;3.88;2.03;;;;;;;;;;5056190;28;20039;-83
2023/07/28 10:56:28;;;;;;;5.18;2.20;;;;;;;;;;5072855;28;20055;-83
2023/07/28 10:59:01;;;;;;;3.80;2.15;;;;;;;;;;5090817;28;20047;-82
2023/07/28 11:01:33;;;;;;;4.60;1.80;;;;;;;;;;5091009;28;20047;-81
2023/07/28 11:04:06;;;;;;;3.38;1.83;;;;;;;;;;5065968;28;20123;-80
2023/07/28 11:06:32;;;;;;;3.15;1.77;;;;;;;;;;5051709;28;20052;-80
2023/07/28 11:08:58;;;;;;;3.78;2.00;;;;;;;;;;5074238;28;20417;-79
2023/07/28 11:11:26;;;;;;;5.63;2.03;;;;;;;;;;5089878;28;20086;-81
2023/07/28 11:13:54;;;;;;;4.07;2.00;;;;;;;;;;5090946;28;20087;-82
2023/07/28 11:16:21;;;;;;;3.92;1.90;;;;;;;;;;5071717;28;20503;-80
2023/07/28 11:18:47;;;;;;;3.25;1.83;;;;;;;;;;5090055;28;20480;-81
2023/07/28 11:21:13;;;;;;;4.13;1.80;;;;;;;;;;5084604;28;20044;-81
2023/07/28 11:23:39;;;;;;;3.25;1.70;;;;;;;;;;5069349;28;20040;-81
2023/07/28 11:26:07;;;;;;;4.68;1.70;;;;;;;;;;5090671;28;20052;-82
2023/07/28 11:28:33;;;;;;;4.97;1.70;;;;;;;;;;5066951;28;20598;-77
2023/07/28 11:30:59;;;;;;;4.63;1.80;;;;;;;;;;5090661;28;20115;-75
2023/07/28 11:33:25;;;;;;;4.57;1.95;;;;;;;;;;5091565;28;20044;-75
2023/07/28 11:35:52;;;;;;;4.20;2.03;;;;;;;;;;5090119;28;20082;-76
2023/07/28 11:38:18;;;;;;;4.32;2.00;;;;;;;;;;5091306;28;20051;-76
2023/07/28 11:40:44;;;;;;;2.92;1.70;;;;;;;;;;5093142;28;20123;-76
2023/07/28 11:43:11;;;;;;;3.08;1.70;;;;;;;;;;5076449;28;20052;-76
2023/07/28 11:45:37;;;;;;;3.47;1.83;;;;;;;;;;5095125;28;20056;-75
2023/07/28 11:48:03;;;;;;;2.83;1.70;;;;;;;;;;5096063;28;20127;-76
2023/07/28 11:50:31;;;;;;;3.78;1.90;;;;;;;;;;5095844;28;20063;-75
2023/07/28 11:52:58;;;;;;;4.13;1.70;;;;;;;;;;5095090;28;20043;-74
2023/07/28 11:55:24;;;;;;;4.63;1.73;;;;;;;;;;5092752;28;20105;-75
2023/07/28 11:57:52;;;;;;;3.50;1.70;;;;;;;;;;5093826;28;20389;-76
2023/07/28 12:00:25;;;;;;;3.10;1.70;;;;;;;;;;5094877;28;20141;-75
2023/07/28 12:03:00;;;;;;;3.78;1.48;;;;;;;;;;5094816;28;20037;-76
2023/07/28 12:05:27;;;;;;;3.40;1.70;;;;;;;;;;5073386;28;20044;-75
2023/07/28 12:07:53;;;;;;;3.67;1.75;;;;;;;;;;5057136;28;20538;-76
2023/07/28 12:10:19;;;;;;;4.05;1.70;;;;;;;;;;5073640;28;20041;-76
2023/07/28 12:12:46;;;;;;;4.00;1.52;;;;;;;;;;5077493;28;20231;-72
2023/07/28 12:15:18;;;;;;;3.45;1.40;;;;;;;;;;5076240;28;20036;-74
2023/07/28 12:18:00;;;;;;;2.63;1.70;;;;;;;;;;5073061;28;20052;-75
2023/07/28 12:20:26;;;;;;;2.50;1.50;;;;;;;;;;5073678;28;20064;-75
2023/07/28 12:22:52;;;;;;;4.35;1.60;;;;;;;;;;5073721;28;20052;-75
2023/07/28 12:25:19;;;;;;;2.13;1.35;;;;;;;;;;5074524;28;20508;-75
2023/07/28 12:27:45;;;;;;;2.90;1.50;;;;;;;;;;5073642;28;20048;-75
2023/07/28 12:30:11;;;;;;;2.80;1.65;;;;;;;;;;5074963;28;20048;-76
2023/07/28 12:32:37;;;;;;;2.78;1.55;;;;;;;;;;5074875;28;20434;-75
2023/07/28 12:35:04;;;;;;;2.58;1.50;;;;;;;;;;5073350;28;20051;-75
2023/07/28 12:37:30;;;;;;;2.50;1.50;;;;;;;;;;5074745;28;20048;-76
2023/07/28 12:39:56;;;;;;;1.70;1.40;;;;;;;;;;5074573;28;20063;-75
2023/07/28 12:42:22;;;;;;;1.60;1.20;;;;;;;;;;5073802;28;20519;-75
2023/07/28 12:44:48;;;;;;;2.80;1.52;;;;;;;;;;5074112;28;20049;-76
2023/07/28 12:47:14;;;;;;;1.95;1.40;;;;;;;;;;5074289;28;20048;-76
2023/07/28 12:49:40;;;;;;;1.73;1.40;;;;;;;;;;5073733;28;20564;-75
2023/07/28 12:52:08;;;;;;;4.72;1.52;;;;;;;;;;5074568;28;20130;-76
2023/07/28 12:54:34;;;;;;;1.98;1.30;;;;;;;;;;5071961;28;20110;-75
2023/07/28 12:57:01;;;;;;;2.17;1.30;;;;;;;;;;5073333;28;20063;-76
2023/07/28 12:59:28;;;;;;;1.90;1.48;;;;;;;;;;5073758;28;20051;-75
2023/07/28 13:01:54;;;;;;;2.63;1.40;;;;;;;;;;5072163;28;20044;-75
2023/07/28 13:04:20;;;;;;;5.22;1.55;;;;;;;;;;5072645;28;20048;-75
2023/07/28 13:06:47;;;;;;;2.80;1.38;;;;;;;;;;5074399;28;20428;-75
2023/07/28 13:09:13;;;;;;;3.83;1.48;;;;;;;;;;5078520;28;20047;-74
2023/07/28 13:11:39;;;;;;;1.88;1.30;;;;;;;;;;5094126;28;20044;-75
2023/07/28 13:14:05;;;;;;;3.92;1.50;;;;;;;;;;5094194;28;20044;-75
2023/07/28 13:16:31;;;;;;;1.67;1.40;;;;;;;;;;5093701;28;20040;-75
2023/07/28 13:18:59;;;;;;;1.67;1.20;;;;;;;;;;5075940;28;20044;-75
2023/07/28 13:21:25;;;;;;;2.08;1.40;;;;;;;;;;5094189;28;20040;-76
2023/07/28 13:23:51;;;;;;;3.97;1.30;;;;;;;;;;5075665;28;20046;-76
2023/07/28 13:26:18;;;;;;;2.33;1.35;;;;;;;;;;5093626;28;20168;-76
2023/07/28 13:28:46;;;;;;;3.35;1.50;;;;;;;;;;5075789;28;20044;-76
2023/07/28 13:31:19;;;;;;;3.80;1.40;;;;;;;;;;5094015;28;20072;-76
2023/07/28 13:33:45;;;;;;;2.65;1.63;;;;;;;;;;5075669;28;20044;-75
2023/07/28 13:36:12;;;;;;;4.15;1.65;;;;;;;;;;5075064;28;20044;-75
2023/07/28 13:38:40;;;;;;;4.43;1.80;;;;;;;;;;5075669;28;20036;-76
2023/07/28 13:41:06;;;;;;;2.67;1.50;;;;;;;;;;5075401;28;20058;-76
2023/07/28 13:43:36;;;;;;;2.80;1.70;;;;;;;;;;5093886;28;20048;-76
2023/07/28 13:46:04;;;;;;;3.50;1.70;;;;;;;;;;5093225;28;20063;-76
2023/07/28 13:48:31;;;;;;;4.10;1.70;;;;;;;;;;5075136;28;20075;-76
2023/07/28 13:50:57;;;;;;;2.38;1.85;;;;;;;;;;5092833;28;20118;-76
2023/07/28 13:53:23;;;;;;;4.57;1.90;;;;;;;;;;5075467;28;20055;-75
2023/07/28 13:55:50;;;;;;;4.68;1.95;;;;;;;;;;5090436;28;20511;-75
2023/07/28 13:58:16;;;;;;;4.25;2.10;;;;;;;;;;5075183;28;20553;-76
2023/07/28 14:00:42;;;;;;;8.20;2.03;;;;;;;;;;5074659;28;20081;-76
2023/07/28 14:03:09;;;;;;;4.35;2.08;;;;;;;;;;5092765;28;20083;-75
2023/07/28 14:05:35;;;;;;;3.42;2.20;;;;;;;;;;5074234;28;20101;-75
2023/07/28 14:08:02;;;;;;;3.15;2.30;;;;;;;;;;5093313;28;20097;-75
2023/07/28 14:10:28;;;;;;;4.30;2.20;;;;;;;;;;5074639;28;20047;-75
2023/07/28 14:12:54;;;;;;;4.20;2.10;;;;;;;;;;5075438;28;20044;-76
2023/07/28 14:15:20;;;;;;;3.80;2.20;;;;;;;;;;5092614;28;20139;-76
2023/07/28 14:17:46;;;;;;;3.20;2.30;;;;;;;;;;5093396;28;20048;-75
2023/07/28 14:20:12;;;;;;;3.63;2.20;;;;;;;;;;5090762;28;20404;-75
2023/07/28 14:22:38;;;;;;;3.35;1.98;;;;;;;;;;5072604;28;20518;-74
2023/07/28 14:25:05;;;;;;;4.47;2.55;;;;;;;;;;5070249;28;20048;-75
2023/07/28 14:27:31;;;;;;;4.53;2.50;;;;;;;;;;5092374;28;20124;-74
2023/07/28 14:29:57;;;;;;;4.95;2.47;;;;;;;;;;5090221;28;20056;-74
2023/07/28 14:32:23;;;;;;;6.30;2.78;;;;;;;;;;5089132;28;20036;-75